createdAt,value
2023-02-11T00:03:29.919Z,2.05
2023-02-11T00:08:32.851Z,2.06
2023-02-11T00:13:35.649Z,2.09
2023-02-11T00:18:39.458Z,2.07
2023-02-11T00:23:45.045Z,2.06
2023-02-11T00:28:49.983Z,2.08
2023-02-11T00:33:53.459Z,2.06
2023-02-11T00:38:57.987Z,2.03
2023-02-11T00:44:02.917Z,2.02
2023-02-11T00:49:06.256Z,2.04
2023-02-11T00:54:09.082Z,2.07
2023-02-11T00:59:11.926Z,2.07
2023-02-11T01:04:14.679Z,2.04
2023-02-11T01:09:17.645Z,2.02
2023-02-11T01:14:20.506Z,2.04
2023-02-11T01:19:23.397Z,2.02
2023-02-11T01:24:26.316Z,1.97
2023-02-11T01:29:29.111Z,1.98
2023-02-11T01:34:33.271Z,1.99
2023-02-11T01:39:36.070Z,1.98
2023-02-11T01:44:40.261Z,1.98
2023-02-11T01:50:04.749Z,1.97
2023-02-11T01:55:31.888Z,1.97
2023-02-11T02:00:39.064Z,2.00
2023-02-11T02:05:54.281Z,1.98
2023-02-11T02:11:00.607Z,1.99
2023-02-11T02:16:12.187Z,2.04
2023-02-11T02:21:52.313Z,2.03
2023-02-11T02:27:34.948Z,2.04
2023-02-11T02:33:23.441Z,2.05
2023-02-11T02:38:36.667Z,2.06
2023-02-11T02:43:51.842Z,2.05
2023-02-11T02:48:59.032Z,2.05
2023-02-11T02:54:43.493Z,2.05
2023-02-11T03:00:32.295Z,2.02
2023-02-11T03:05:50.018Z,2.00
2023-02-11T03:10:55.656Z,1.99
2023-02-11T03:16:02.415Z,1.99
2023-02-11T03:21:16.302Z,2.01
2023-02-11T03:27:08.646Z,2.02
2023-02-11T03:32:22.301Z,2.00
2023-02-11T03:37:51.110Z,2.01
2023-02-11T03:43:03.125Z,2.00
2023-02-11T03:48:17.038Z,2.00
2023-02-11T03:53:22.250Z,1.99
2023-02-11T03:58:25.109Z,1.99
2023-02-11T04:03:28.201Z,2.02
2023-02-11T04:08:32.312Z,1.99
2023-02-11T04:13:35.126Z,1.99
2023-02-11T04:18:37.955Z,2.00
2023-02-11T04:23:40.776Z,1.99
2023-02-11T04:28:43.643Z,1.98
2023-02-11T04:33:46.832Z,1.97
2023-02-11T04:38:49.963Z,1.96
2023-02-11T04:43:52.781Z,1.96
2023-02-11T04:48:56.615Z,1.93
2023-02-11T04:53:59.381Z,1.90
2023-02-11T04:59:02.348Z,1.89
2023-02-11T05:04:05.326Z,1.87
2023-02-11T05:09:08.357Z,1.86
2023-02-11T05:14:11.191Z,1.83
2023-02-11T05:19:14.363Z,1.75
2023-02-11T05:24:17.189Z,1.67
2023-02-11T05:29:20.383Z,1.61
2023-02-11T05:34:23.196Z,1.56
2023-02-11T05:39:25.967Z,1.54
2023-02-11T05:44:28.831Z,1.52
2023-02-11T05:49:31.819Z,1.50
2023-02-11T05:54:34.646Z,1.49
2023-02-11T05:59:37.578Z,1.48
2023-02-11T06:04:40.426Z,1.47
2023-02-11T06:09:43.291Z,1.47
2023-02-11T06:14:46.080Z,1.47
2023-02-11T06:19:49.639Z,1.49
2023-02-11T06:25:01.264Z,1.51
2023-02-11T06:30:06.622Z,1.51
2023-02-11T06:35:11.906Z,1.53
2023-02-11T06:40:15.702Z,1.56
2023-02-11T06:45:20.706Z,1.58
2023-02-11T06:50:23.625Z,1.58
2023-02-11T06:55:26.973Z,1.59
2023-02-11T07:00:29.858Z,1.59
2023-02-11T07:05:34.379Z,1.59
2023-02-11T07:10:37.379Z,1.62
2023-02-11T07:15:40.313Z,1.67
2023-02-11T07:20:44.705Z,1.70
2023-02-11T07:25:47.596Z,1.71
2023-02-11T07:30:50.778Z,1.74
2023-02-11T07:35:53.712Z,1.77
2023-02-11T07:41:00.925Z,1.76
2023-02-11T07:46:17.189Z,1.77
2023-02-11T07:51:24.191Z,1.76
2023-02-11T07:56:28.528Z,1.76
2023-02-11T08:01:31.889Z,1.76
2023-02-11T08:06:35.827Z,1.77
2023-02-11T08:11:38.769Z,1.76
2023-02-11T08:16:41.941Z,1.75
2023-02-11T08:21:45.041Z,1.80
2023-02-11T08:26:47.879Z,1.85
2023-02-11T08:31:51.713Z,1.87
2023-02-11T08:36:54.549Z,1.85
2023-02-11T08:41:58.029Z,1.87
2023-02-11T08:47:00.833Z,1.93
2023-02-11T08:52:04.361Z,1.95
2023-02-11T08:57:07.196Z,2.00
2023-02-11T09:02:15.775Z,2.02
2023-02-11T09:07:18.566Z,2.05
2023-02-11T09:12:21.393Z,2.11
2023-02-11T09:17:24.250Z,2.18
2023-02-11T09:22:27.293Z,2.18
2023-02-11T09:27:30.197Z,2.19
2023-02-11T09:32:34.868Z,2.16
2023-02-11T09:37:37.674Z,2.18
2023-02-11T09:43:06.975Z,2.21
2023-02-11T09:48:17.285Z,2.24
2023-02-11T09:53:35.641Z,2.24
2023-02-11T09:58:44.722Z,2.27
2023-02-11T10:04:19.569Z,2.30
2023-02-11T10:09:34.446Z,2.33
2023-02-11T10:14:43.009Z,2.35
2023-02-11T10:20:03.350Z,2.45
2023-02-11T10:25:38.196Z,2.69
2023-02-11T10:30:56.035Z,2.77
2023-02-11T10:35:59.631Z,2.83
2023-02-11T10:41:02.458Z,2.85
2023-02-11T10:46:06.131Z,2.90
2023-02-11T10:51:29.496Z,2.89
2023-02-11T10:56:37.467Z,2.88
2023-02-11T11:01:46.464Z,2.88
2023-02-11T11:06:49.389Z,2.93
2023-02-11T11:11:56.054Z,2.94
2023-02-11T11:16:58.889Z,3.06
2023-02-11T11:22:01.876Z,3.13
2023-02-11T11:27:06.416Z,3.20
2023-02-11T11:32:20.745Z,3.20
2023-02-11T11:37:36.357Z,3.14
2023-02-11T11:42:42.374Z,3.14
2023-02-11T11:48:00.690Z,3.14
2023-02-11T11:53:36.045Z,3.14
2023-02-11T11:58:38.881Z,3.23
2023-02-11T12:04:41.679Z,3.29
2023-02-11T12:10:17.084Z,3.40
2023-02-11T12:15:44.069Z,3.48
2023-02-11T12:21:17.578Z,3.49
2023-02-11T12:26:28.534Z,3.49
2023-02-11T12:31:59.926Z,3.47
2023-02-11T12:37:29.958Z,3.45
2023-02-11T12:43:13.622Z,3.47
2023-02-11T12:48:25.756Z,3.49
2023-02-11T12:53:31.254Z,3.54
2023-02-11T12:58:47.070Z,3.61
2023-02-11T13:04:02.393Z,3.69
2023-02-11T13:09:14.198Z,3.76
2023-02-11T13:14:41.113Z,3.80
2023-02-11T13:19:55.023Z,3.86
2023-02-11T13:25:35.121Z,3.93
2023-02-11T13:30:47.232Z,4.02
2023-02-11T13:36:17.268Z,4.08
2023-02-11T13:41:38.740Z,4.15
2023-02-11T13:47:08.098Z,4.21
2023-02-11T13:52:38.745Z,4.31
2023-02-11T13:57:42.694Z,4.42
2023-02-11T14:03:30.284Z,4.51
2023-02-11T14:08:58.187Z,4.66
2023-02-11T14:14:17.383Z,4.79
2023-02-11T14:19:44.346Z,4.88
2023-02-11T14:24:59.657Z,4.91
2023-02-11T14:30:39.924Z,4.93
2023-02-11T14:36:01.791Z,4.94
2023-02-11T14:41:14.877Z,4.95
2023-02-11T14:46:21.203Z,4.95
2023-02-11T14:51:38.918Z,4.95
2023-02-11T14:56:44.220Z,4.95
2023-02-11T15:01:59.921Z,4.97
2023-02-11T15:07:13.265Z,4.95
2023-02-11T15:12:29.483Z,4.89
2023-02-11T15:17:34.838Z,4.88
2023-02-11T15:22:38.573Z,4.87
2023-02-11T15:27:48.908Z,4.90
2023-02-11T15:32:59.307Z,4.92
2023-02-11T15:38:03.626Z,4.89
2023-02-11T15:43:09.841Z,4.92
2023-02-11T15:48:27.068Z,4.96
2023-02-11T15:53:40.713Z,4.97
2023-02-11T15:58:47.602Z,4.96
2023-02-11T16:03:50.953Z,4.96
2023-02-11T16:09:17.346Z,4.95
2023-02-11T16:14:39.758Z,4.92
2023-02-11T16:19:48.053Z,4.90
2023-02-11T16:24:54.700Z,4.88
2023-02-11T16:29:58.862Z,4.86
2023-02-11T16:35:02.061Z,4.86
2023-02-11T16:40:05.867Z,4.86
2023-02-11T16:45:09.231Z,4.85
2023-02-11T16:50:23.417Z,4.85
2023-02-11T16:55:29.252Z,4.84
2023-02-11T17:00:32.511Z,4.77
2023-02-11T17:05:53.156Z,4.70
2023-02-11T17:10:58.479Z,4.66
2023-02-11T17:16:05.678Z,4.61
2023-02-11T17:21:09.174Z,4.58
2023-02-11T17:26:12.743Z,4.60
2023-02-11T17:31:17.308Z,4.63
2023-02-11T17:36:22.576Z,4.63
2023-02-11T17:41:26.185Z,4.45
2023-02-11T17:46:29.113Z,4.22
2023-02-11T17:51:36.859Z,3.99
2023-02-11T17:56:41.900Z,3.81
2023-02-11T18:01:47.020Z,3.65
2023-02-11T18:06:51.988Z,3.53
2023-02-11T18:11:58.533Z,3.46
2023-02-11T18:17:03.760Z,3.41
2023-02-11T18:22:06.735Z,3.34
2023-02-11T18:27:10.152Z,3.14
2023-02-11T18:32:15.363Z,2.96
2023-02-11T18:37:18.182Z,2.76
2023-02-11T18:42:22.805Z,2.58
2023-02-11T18:47:26.277Z,2.48
2023-02-11T18:52:29.248Z,2.38
2023-02-11T18:57:32.380Z,2.32
2023-02-11T19:02:35.494Z,2.22
2023-02-11T19:07:38.425Z,2.12
2023-02-11T19:12:42.333Z,2.02
2023-02-11T19:17:45.221Z,1.95
2023-02-11T19:22:48.698Z,1.87
2023-02-11T19:27:51.661Z,1.82
2023-02-11T19:32:57.773Z,1.79
2023-02-11T19:38:01.087Z,1.72
2023-02-11T19:43:03.986Z,1.64
2023-02-11T19:48:07.129Z,1.55
2023-02-11T19:53:09.945Z,1.48
2023-02-11T19:58:14.601Z,1.41
2023-02-11T20:03:17.783Z,1.36
2023-02-11T20:08:21.627Z,1.30
2023-02-11T20:13:26.549Z,1.25
2023-02-11T20:18:34.085Z,1.27
2023-02-11T20:23:38.470Z,1.33
2023-02-11T20:28:42.116Z,1.36
2023-02-11T20:33:46.498Z,1.33
2023-02-11T20:38:51.040Z,1.30
2023-02-11T20:43:55.990Z,1.29
2023-02-11T20:49:01.160Z,1.23
2023-02-11T20:54:06.174Z,1.13
2023-02-11T20:59:09.253Z,1.02
2023-02-11T21:04:15.567Z,0.96
2023-02-11T21:09:23.899Z,0.97
2023-02-11T21:14:31.153Z,0.99
2023-02-11T21:19:41.674Z,1.03
2023-02-11T21:24:45.837Z,1.08
2023-02-11T21:29:54.149Z,1.11
2023-02-11T21:34:59.087Z,1.11
2023-02-11T21:40:03.594Z,1.03
2023-02-11T21:45:07.186Z,0.98
2023-02-11T21:50:12.949Z,1.02
2023-02-11T21:55:16.580Z,1.09
2023-02-11T22:00:19.621Z,1.12
2023-02-11T22:05:22.740Z,1.17
2023-02-11T22:10:25.531Z,1.22
2023-02-11T22:15:28.300Z,1.19
2023-02-11T22:20:31.103Z,1.17
2023-02-11T22:25:33.870Z,1.14
2023-02-11T22:30:36.708Z,1.13
2023-02-11T22:35:39.638Z,1.18
2023-02-11T22:40:44.088Z,1.24
2023-02-11T22:45:46.938Z,1.23
2023-02-11T22:50:49.820Z,1.24
2023-02-11T22:55:52.968Z,1.21
2023-02-11T23:00:55.865Z,1.14
2023-02-11T23:05:59.959Z,1.09
2023-02-11T23:11:05.317Z,1.08
2023-02-11T23:16:12.359Z,1.06
2023-02-11T23:21:16.996Z,1.01
2023-02-11T23:26:19.819Z,0.97
2023-02-11T23:31:29.714Z,0.93
2023-02-11T23:36:32.913Z,0.89
2023-02-11T23:41:35.736Z,0.87
2023-02-11T23:46:38.649Z,0.83
2023-02-11T23:51:41.497Z,0.80
2023-02-11T23:56:44.685Z,0.79
